Time;durP1;ratioP1;P1;durP2;ratioP2;P2;SDS_P1;SDS_P2;PMS_P1;PMS_P2;Temp;Humidity;BMP_temperature;BMP_pressure;BME280_temperature;BME280_humidity;BME280_pressure;Samples;Min_cycle;Max_cycle;Signal;HPM_P1;HPM_P2
2022/10/14 00:00:39;;;;;;;7.35;3.50;;;;;;;;;;6114197;23;20112;-74
2022/10/14 00:03:05;;;;;;;8.75;4.10;;;;;;;;;;6113528;23;20013;-74
2022/10/14 00:05:31;;;;;;;6.53;3.63;;;;;;;;;;6114621;23;20014;-74
2022/10/14 00:07:58;;;;;;;4.80;3.03;;;;;;;;;;6116193;23;20025;-73
2022/10/14 00:10:24;;;;;;;6.97;3.72;;;;;;;;;;6114214;23;20006;-74
2022/10/14 00:12:50;;;;;;;8.38;3.60;;;;;;;;;;6114237;23;20006;-74
2022/10/14 00:15:17;;;;;;;6.60;3.80;;;;;;;;;;6092535;23;20084;-74
2022/10/14 00:17:43;;;;;;;6.00;3.45;;;;;;;;;;6117557;23;19994;-74
2022/10/14 00:20:09;;;;;;;9.45;3.83;;;;;;;;;;6115548;23;20013;-74
2022/10/14 00:22:35;;;;;;;7.30;4.45;;;;;;;;;;6117161;23;19998;-74
2022/10/14 00:25:01;;;;;;;9.07;3.90;;;;;;;;;;6116047;23;20021;-74
2022/10/14 00:27:27;;;;;;;7.32;3.90;;;;;;;;;;6118651;23;20002;-74
2022/10/14 00:29:54;;;;;;;10.57;3.90;;;;;;;;;;6117068;23;20014;-74
2022/10/14 00:32:20;;;;;;;5.80;3.50;;;;;;;;;;6093266;23;20013;-73
2022/10/14 00:34:46;;;;;;;8.82;3.45;;;;;;;;;;6118913;23;20003;-73
2022/10/14 00:37:12;;;;;;;9.73;3.85;;;;;;;;;;6118937;23;20006;-74
2022/10/14 00:39:38;;;;;;;8.50;3.42;;;;;;;;;;6118961;23;20411;-74
2022/10/14 00:42:04;;;;;;;5.68;3.60;;;;;;;;;;6119348;23;20017;-74
2022/10/14 00:44:30;;;;;;;11.80;3.95;;;;;;;;;;6117401;23;20013;-74
2022/10/14 00:46:56;;;;;;;5.50;3.50;;;;;;;;;;6118828;23;20002;-73
2022/10/14 00:49:28;;;;;;;9.95;3.85;;;;;;;;;;6119035;23;20013;-74
2022/10/14 00:51:56;;;;;;;7.88;3.75;;;;;;;;;;6118874;23;20068;-74
2022/10/14 00:54:24;;;;;;;8.55;3.70;;;;;;;;;;6114964;23;20910;-74
2022/10/14 00:56:50;;;;;;;9.77;4.82;;;;;;;;;;6110653;23;20511;-74
2022/10/14 00:59:16;;;;;;;9.18;4.25;;;;;;;;;;6146916;23;20019;-73
2022/10/14 01:01:43;;;;;;;8.90;4.25;;;;;;;;;;6146512;23;20419;-74
2022/10/14 01:04:09;;;;;;;6.70;4.25;;;;;;;;;;6144949;23;20497;-73
2022/10/14 01:06:36;;;;;;;7.45;4.78;;;;;;;;;;6146571;23;20065;-74
2022/10/14 01:09:08;;;;;;;10.23;5.05;;;;;;;;;;6146940;23;20052;-74
2022/10/14 01:11:34;;;;;;;8.15;4.72;;;;;;;;;;6146402;23;20060;-74
2022/10/14 01:14:00;;;;;;;10.82;5.18;;;;;;;;;;6148382;23;20020;-74
2022/10/14 01:16:47;;;;;;;8.48;5.13;;;;;;;;;;6120442;23;19998;-74
2022/10/14 01:19:25;;;;;;;8.10;5.57;;;;;;;;;;6148302;23;20039;-74
2022/10/14 01:21:53;;;;;;;9.68;6.00;;;;;;;;;;6148855;23;20013;-74
2022/10/14 01:24:25;;;;;;;10.70;6.57;;;;;;;;;;6148974;23;20008;-74
2022/10/14 01:27:10;;;;;;;13.73;6.72;;;;;;;;;;6146682;23;20099;-74
2022/10/14 01:29:55;;;;;;;13.25;7.70;;;;;;;;;;6148110;23;20056;-74
2022/10/14 01:32:31;;;;;;;11.13;6.50;;;;;;;;;;6147686;23;20013;-74
2022/10/14 01:35:02;;;;;;;11.15;6.63;;;;;;;;;;6148130;23;20506;-74
2022/10/14 01:37:29;;;;;;;10.32;6.85;;;;;;;;;;6148659;23;20025;-74
2022/10/14 01:39:58;;;;;;;8.43;6.35;;;;;;;;;;6148137;23;20002;-73
2022/10/14 01:42:30;;;;;;;9.95;6.80;;;;;;;;;;6123981;23;20450;-73
2022/10/14 01:44:59;;;;;;;20.00;7.30;;;;;;;;;;6150148;23;20422;-74
2022/10/14 01:47:28;;;;;;;12.13;6.40;;;;;;;;;;6149850;23;19997;-74
2022/10/14 01:49:58;;;;;;;9.30;6.20;;;;;;;;;;6150602;23;20071;-73
2022/10/14 01:52:26;;;;;;;10.40;6.80;;;;;;;;;;6149721;23;20001;-73
2022/10/14 01:54:55;;;;;;;11.15;6.32;;;;;;;;;;6147899;23;20005;-74
2022/10/14 01:57:26;;;;;;;9.20;6.65;;;;;;;;;;6123942;23;20022;-74
2022/10/14 01:59:53;;;;;;;12.20;7.32;;;;;;;;;;6120761;23;19998;-73
2022/10/14 02:02:19;;;;;;;9.95;6.35;;;;;;;;;;6120276;23;20444;-74
2022/10/14 02:04:45;;;;;;;9.80;5.97;;;;;;;;;;6119728;23;20014;-73
2022/10/14 02:07:15;;;;;;;10.18;6.13;;;;;;;;;;6118702;23;20006;-74
2022/10/14 02:09:49;;;;;;;9.18;5.47;;;;;;;;;;6120081;23;20013;-74
2022/10/14 02:12:27;;;;;;;12.82;6.18;;;;;;;;;;6118166;23;20002;-74
2022/10/14 02:15:02;;;;;;;12.52;6.53;;;;;;;;;;6113397;23;20001;-74
2022/10/14 02:17:35;;;;;;;13.55;6.75;;;;;;;;;;6114546;23;20005;-74
2022/10/14 02:20:05;;;;;;;12.63;6.15;;;;;;;;;;6114175;23;20002;-74
2022/10/14 02:22:39;;;;;;;10.65;6.68;;;;;;;;;;6114141;23;20085;-74
2022/10/14 02:25:13;;;;;;;9.40;6.18;;;;;;;;;;6112679;23;20621;-74
2022/10/14 02:27:39;;;;;;;11.77;6.90;;;;;;;;;;6114107;23;20006;-74
2022/10/14 02:30:06;;;;;;;9.15;6.38;;;;;;;;;;6114632;23;20001;-74
2022/10/14 02:32:32;;;;;;;10.95;6.78;;;;;;;;;;6114983;23;20005;-73
2022/10/14 02:34:59;;;;;;;11.60;6.50;;;;;;;;;;6114149;23;20002;-74
2022/10/14 02:37:26;;;;;;;8.73;6.38;;;;;;;;;;6112366;23;20336;-74
2022/10/14 02:39:59;;;;;;;13.95;7.07;;;;;;;;;;6112047;23;20009;-73
2022/10/14 02:42:27;;;;;;;10.80;7.13;;;;;;;;;;6113648;23;20010;-74
2022/10/14 02:45:00;;;;;;;11.93;7.10;;;;;;;;;;6113924;23;20532;-74
2022/10/14 02:47:27;;;;;;;9.52;6.13;;;;;;;;;;6113539;23;20060;-74
2022/10/14 02:49:53;;;;;;;10.23;6.13;;;;;;;;;;6112083;23;20343;-74
2022/10/14 02:52:19;;;;;;;10.00;7.53;;;;;;;;;;6114607;23;20006;-74
2022/10/14 02:54:45;;;;;;;12.65;7.35;;;;;;;;;;6114417;23;20002;-74
2022/10/14 02:57:12;;;;;;;16.73;7.65;;;;;;;;;;6113828;23;20025;-74
2022/10/14 02:59:41;;;;;;;15.20;7.65;;;;;;;;;;6113007;23;20066;-75
2022/10/14 03:02:07;;;;;;;9.90;7.82;;;;;;;;;;6112338;23;20335;-73
2022/10/14 03:04:34;;;;;;;13.13;7.80;;;;;;;;;;6114157;23;20293;-74
2022/10/14 03:07:00;;;;;;;12.55;7.80;;;;;;;;;;6114013;23;20483;-74
2022/10/14 03:09:26;;;;;;;11.18;7.25;;;;;;;;;;6087574;23;20006;-74
2022/10/14 03:11:52;;;;;;;11.13;7.10;;;;;;;;;;6113120;23;20017;-73
2022/10/14 03:14:18;;;;;;;18.52;7.95;;;;;;;;;;6114302;23;20605;-74
2022/10/14 03:16:44;;;;;;;9.05;6.68;;;;;;;;;;6111088;23;20439;-74
2022/10/14 03:19:10;;;;;;;9.55;6.88;;;;;;;;;;6108588;23;20006;-73
2022/10/14 03:21:37;;;;;;;12.40;7.50;;;;;;;;;;6110819;23;20010;-74
2022/10/14 03:24:03;;;;;;;10.75;7.32;;;;;;;;;;6110324;23;20009;-73
2022/10/14 03:26:29;;;;;;;13.95;7.15;;;;;;;;;;6111261;23;20020;-74
2022/10/14 03:28:55;;;;;;;13.73;6.80;;;;;;;;;;6109533;23;20010;-74
2022/10/14 03:31:21;;;;;;;12.93;7.40;;;;;;;;;;6111211;23;20498;-74
2022/10/14 03:33:47;;;;;;;11.13;6.78;;;;;;;;;;6110750;23;20002;-74
2022/10/14 03:36:14;;;;;;;10.18;5.85;;;;;;;;;;6110129;23;20013;-74
2022/10/14 03:38:40;;;;;;;11.30;5.88;;;;;;;;;;6106907;23;20561;-74
2022/10/14 03:41:06;;;;;;;17.85;6.72;;;;;;;;;;6110861;23;20010;-74
2022/10/14 03:43:32;;;;;;;13.90;6.65;;;;;;;;;;6110761;23;20331;-73
2022/10/14 03:45:59;;;;;;;13.27;5.70;;;;;;;;;;6110995;23;20010;-73
2022/10/14 03:48:25;;;;;;;10.02;5.78;;;;;;;;;;6110943;23;20033;-74
2022/10/14 03:50:51;;;;;;;14.13;6.00;;;;;;;;;;6084566;23;20575;-74
2022/10/14 03:53:17;;;;;;;10.82;5.35;;;;;;;;;;6109255;23;20025;-74
2022/10/14 03:55:43;;;;;;;10.88;5.50;;;;;;;;;;6110887;23;20112;-74
2022/10/14 03:58:10;;;;;;;12.18;6.25;;;;;;;;;;6110970;23;20002;-74
2022/10/14 04:00:36;;;;;;;19.75;5.65;;;;;;;;;;6110452;23;20009;-74
2022/10/14 04:03:03;;;;;;;10.05;5.10;;;;;;;;;;6082907;23;20006;-73
2022/10/14 04:05:32;;;;;;;9.68;5.55;;;;;;;;;;6110456;23;20475;-73
2022/10/14 04:07:59;;;;;;;9.35;4.80;;;;;;;;;;6110421;23;20030;-73
2022/10/14 04:10:25;;;;;;;13.82;5.63;;;;;;;;;;6109825;23;20076;-74
2022/10/14 04:12:52;;;;;;;9.75;5.55;;;;;;;;;;6108206;23;20785;-73
2022/10/14 04:15:19;;;;;;;11.48;5.53;;;;;;;;;;6110735;23;20032;-73
2022/10/14 04:17:45;;;;;;;8.40;5.45;;;;;;;;;;6110982;23;19998;-73
2022/10/14 04:20:11;;;;;;;10.95;5.93;;;;;;;;;;6087204;23;20090;-73
2022/10/14 04:22:37;;;;;;;7.97;5.28;;;;;;;;;;6113127;23;20006;-74
2022/10/14 04:25:04;;;;;;;11.15;5.47;;;;;;;;;;6087978;23;20036;-73
2022/10/14 04:27:30;;;;;;;17.83;5.72;;;;;;;;;;6111988;23;20006;-74
2022/10/14 04:29:56;;;;;;;8.52;5.70;;;;;;;;;;6112760;23;20477;-74
2022/10/14 04:32:22;;;;;;;13.40;5.25;;;;;;;;;;6112577;23;20084;-73
2022/10/14 04:34:49;;;;;;;13.10;5.57;;;;;;;;;;6112981;23;20005;-73
2022/10/14 04:37:15;;;;;;;9.98;5.45;;;;;;;;;;6113027;23;19998;-73
2022/10/14 04:39:41;;;;;;;7.97;5.60;;;;;;;;;;6112268;23;20084;-73
2022/10/14 04:42:07;;;;;;;11.98;5.57;;;;;;;;;;6111147;23;20379;-73
2022/10/14 04:44:34;;;;;;;10.77;5.32;;;;;;;;;;6087212;23;20060;-73
2022/10/14 04:47:00;;;;;;;11.55;6.65;;;;;;;;;;6113365;23;20009;-73
2022/10/14 04:49:26;;;;;;;11.75;5.40;;;;;;;;;;6111340;23;20006;-74
2022/10/14 04:51:52;;;;;;;11.23;6.07;;;;;;;;;;6112924;23;20002;-73
2022/10/14 04:54:18;;;;;;;13.38;6.07;;;;;;;;;;6113171;23;20002;-73
2022/10/14 04:56:45;;;;;;;9.65;5.18;;;;;;;;;;6112289;23;20089;-73
2022/10/14 04:59:12;;;;;;;10.60;5.22;;;;;;;;;;6110945;23;20010;-73
2022/10/14 05:01:38;;;;;;;15.65;5.20;;;;;;;;;;6112374;23;20009;-73
2022/10/14 05:04:05;;;;;;;8.20;5.20;;;;;;;;;;6109691;23;20009;-73
2022/10/14 05:06:32;;;;;;;12.60;5.65;;;;;;;;;;6108774;23;20024;-73
2022/10/14 05:08:58;;;;;;;13.73;5.63;;;;;;;;;;6110643;23;20431;-73
2022/10/14 05:11:24;;;;;;;8.98;5.50;;;;;;;;;;6109821;23;20006;-73
2022/10/14 05:13:50;;;;;;;8.65;5.70;;;;;;;;;;6112083;23;20028;-73
2022/10/14 05:16:17;;;;;;;11.60;5.80;;;;;;;;;;6110862;23;20034;-74
2022/10/14 05:18:43;;;;;;;9.70;6.47;;;;;;;;;;6112182;23;20033;-74
2022/10/14 05:21:09;;;;;;;10.95;6.15;;;;;;;;;;6112749;23;20006;-73
2022/10/14 05:23:36;;;;;;;11.75;5.55;;;;;;;;;;6084666;23;20056;-74
2022/10/14 05:26:02;;;;;;;9.77;6.15;;;;;;;;;;6109307;23;20013;-74
2022/10/14 05:28:29;;;;;;;10.32;5.75;;;;;;;;;;6112346;23;20052;-74
2022/10/14 05:30:56;;;;;;;9.57;5.63;;;;;;;;;;6114375;23;20006;-73
2022/10/14 05:33:22;;;;;;;8.70;5.32;;;;;;;;;;6114738;23;20010;-74
2022/10/14 05:35:48;;;;;;;10.68;5.90;;;;;;;;;;6115198;23;20006;-73
2022/10/14 05:38:14;;;;;;;7.88;5.30;;;;;;;;;;6114928;23;20006;-73
2022/10/14 05:40:40;;;;;;;11.70;6.65;;;;;;;;;;6112773;23;20029;-73
2022/10/14 05:43:06;;;;;;;10.13;5.72;;;;;;;;;;6114554;23;20001;-74
2022/10/14 05:45:33;;;;;;;9.45;5.97;;;;;;;;;;6113978;23;20014;-74
2022/10/14 05:47:59;;;;;;;7.90;5.50;;;;;;;;;;6114201;23;20052;-73
2022/10/14 05:50:25;;;;;;;10.00;5.72;;;;;;;;;;6114706;23;20013;-74
2022/10/14 05:52:51;;;;;;;13.40;5.95;;;;;;;;;;6112436;23;20002;-73
2022/10/14 05:55:17;;;;;;;12.07;5.93;;;;;;;;;;6114066;23;20566;-73
2022/10/14 05:57:43;;;;;;;10.73;5.53;;;;;;;;;;6116021;23;19990;-73
2022/10/14 06:00:10;;;;;;;10.65;6.28;;;;;;;;;;6114405;23;20088;-74
2022/10/14 06:02:36;;;;;;;12.70;6.13;;;;;;;;;;6114350;23;20073;-74
2022/10/14 06:05:02;;;;;;;10.45;5.60;;;;;;;;;;6086930;23;20469;-75
2022/10/14 06:07:28;;;;;;;10.13;6.78;;;;;;;;;;6114263;23;20006;-74
2022/10/14 06:09:54;;;;;;;14.00;6.43;;;;;;;;;;6112783;23;20427;-74
2022/10/14 06:12:20;;;;;;;11.95;5.78;;;;;;;;;;6112297;23;20006;-74
2022/10/14 06:14:47;;;;;;;8.25;5.70;;;;;;;;;;6110768;23;20585;-73
2022/10/14 06:17:13;;;;;;;13.32;5.90;;;;;;;;;;6112215;23;20005;-74
2022/10/14 06:19:39;;;;;;;13.65;6.32;;;;;;;;;;6112099;23;20002;-74
2022/10/14 06:22:05;;;;;;;8.95;5.85;;;;;;;;;;6112455;23;20002;-73
2022/10/14 06:24:31;;;;;;;14.57;7.05;;;;;;;;;;6112357;23;19999;-74
2022/10/14 06:26:57;;;;;;;10.05;6.07;;;;;;;;;;6112350;23;20424;-74
2022/10/14 06:29:30;;;;;;;15.90;7.05;;;;;;;;;;6113598;23;20010;-74
2022/10/14 06:31:56;;;;;;;13.32;5.40;;;;;;;;;;6113876;23;20013;-74
2022/10/14 06:34:23;;;;;;;11.65;6.93;;;;;;;;;;6113599;23;20009;-74
2022/10/14 06:36:49;;;;;;;10.80;6.40;;;;;;;;;;6112400;23;20021;-74
2022/10/14 06:39:15;;;;;;;11.65;6.22;;;;;;;;;;6087954;23;20113;-74
2022/10/14 06:41:42;;;;;;;9.50;5.72;;;;;;;;;;6113748;23;20002;-74
2022/10/14 06:44:08;;;;;;;10.02;5.68;;;;;;;;;;6113610;23;20322;-74
2022/10/14 06:46:34;;;;;;;9.55;5.90;;;;;;;;;;6113953;23;20014;-74
2022/10/14 06:49:00;;;;;;;12.20;5.65;;;;;;;;;;6111533;23;19998;-73
2022/10/14 06:51:27;;;;;;;13.88;6.10;;;;;;;;;;6113723;23;20097;-73
2022/10/14 06:53:53;;;;;;;8.82;6.28;;;;;;;;;;6113511;23;20041;-74
2022/10/14 06:56:19;;;;;;;11.60;6.93;;;;;;;;;;6114115;23;20470;-74
2022/10/14 06:58:45;;;;;;;11.75;6.80;;;;;;;;;;6113617;23;20720;-74
2022/10/14 07:01:11;;;;;;;15.20;6.70;;;;;;;;;;6114025;23;20008;-73
2022/10/14 07:03:38;;;;;;;13.30;7.20;;;;;;;;;;6108787;23;20028;-74
2022/10/14 07:06:07;;;;;;;16.73;6.50;;;;;;;;;;6111162;23;20014;-73
2022/10/14 07:08:33;;;;;;;9.73;6.45;;;;;;;;;;6112170;23;20073;-74
2022/10/14 07:10:59;;;;;;;8.82;5.85;;;;;;;;;;6112491;23;20013;-73
2022/10/14 07:13:26;;;;;;;12.80;7.22;;;;;;;;;;6110927;23;20085;-74
2022/10/14 07:15:52;;;;;;;9.27;5.90;;;;;;;;;;6113305;23;20608;-74
2022/10/14 07:18:18;;;;;;;16.40;7.97;;;;;;;;;;6109097;23;20006;-74
2022/10/14 07:20:45;;;;;;;14.73;6.68;;;;;;;;;;6112803;23;20005;-74
2022/10/14 07:23:12;;;;;;;12.45;6.55;;;;;;;;;;6114608;23;20006;-73
2022/10/14 07:25:38;;;;;;;9.35;6.32;;;;;;;;;;6112235;23;20013;-73
2022/10/14 07:28:04;;;;;;;10.13;6.03;;;;;;;;;;6085150;23;20248;-74
2022/10/14 07:30:31;;;;;;;10.60;6.32;;;;;;;;;;6110688;23;20017;-73
2022/10/14 07:32:58;;;;;;;15.73;6.97;;;;;;;;;;6113175;23;20009;-73
2022/10/14 07:35:25;;;;;;;9.25;6.50;;;;;;;;;;6112345;23;20006;-73
2022/10/14 07:37:52;;;;;;;11.98;6.65;;;;;;;;;;6087453;23;20035;-74
2022/10/14 07:40:18;;;;;;;11.20;5.88;;;;;;;;;;6111414;23;20328;-74
2022/10/14 07:42:45;;;;;;;9.02;6.57;;;;;;;;;;6113068;23;20431;-74
2022/10/14 07:45:14;;;;;;;15.55;6.57;;;;;;;;;;6109813;23;20562;-74
2022/10/14 07:47:41;;;;;;;13.45;6.47;;;;;;;;;;6112009;23;20002;-74
2022/10/14 07:50:08;;;;;;;13.40;7.10;;;;;;;;;;6111568;23;20332;-73
2022/10/14 07:52:34;;;;;;;15.20;7.57;;;;;;;;;;6085690;23;20009;-74
2022/10/14 07:55:00;;;;;;;14.30;7.10;;;;;;;;;;6110696;23;20002;-74
2022/10/14 07:57:27;;;;;;;9.00;6.80;;;;;;;;;;6112419;23;20485;-73
2022/10/14 07:59:53;;;;;;;10.77;6.55;;;;;;;;;;6140524;23;20610;-74
2022/10/14 08:02:20;;;;;;;14.15;7.15;;;;;;;;;;6142727;23;20006;-74
2022/10/14 08:04:46;;;;;;;10.43;6.43;;;;;;;;;;6142651;23;20002;-73
2022/10/14 08:07:16;;;;;;;10.80;6.00;;;;;;;;;;6141368;23;20005;-74
2022/10/14 08:09:42;;;;;;;10.02;6.30;;;;;;;;;;6116452;23;20012;-74
2022/10/14 08:12:08;;;;;;;10.70;6.97;;;;;;;;;;6141917;23;20415;-74
2022/10/14 08:14:34;;;;;;;12.70;6.18;;;;;;;;;;6143041;23;20012;-74
2022/10/14 08:17:01;;;;;;;9.60;6.78;;;;;;;;;;6142542;23;20002;-74
2022/10/14 08:19:27;;;;;;;11.73;7.20;;;;;;;;;;6140059;23;19998;-74
2022/10/14 08:21:53;;;;;;;9.48;6.85;;;;;;;;;;6142360;23;20033;-73
2022/10/14 08:24:19;;;;;;;12.48;7.32;;;;;;;;;;6141889;23;20482;-73
2022/10/14 08:26:50;;;;;;;14.90;7.03;;;;;;;;;;6141862;23;20016;-74
2022/10/14 08:29:16;;;;;;;9.38;6.63;;;;;;;;;;6142405;23;20442;-74
2022/10/14 08:31:42;;;;;;;19.73;7.78;;;;;;;;;;6142856;23;20043;-73
2022/10/14 08:34:10;;;;;;;10.52;7.43;;;;;;;;;;6140802;23;20008;-74
2022/10/14 08:36:36;;;;;;;13.55;7.68;;;;;;;;;;6142266;23;20331;-74
2022/10/14 08:39:02;;;;;;;13.52;7.18;;;;;;;;;;6142153;23;20335;-74
2022/10/14 08:41:31;;;;;;;13.10;7.72;;;;;;;;;;6140432;23;20008;-73
2022/10/14 08:44:18;;;;;;;14.93;6.93;;;;;;;;;;6142307;23;20001;-73
2022/10/14 08:46:50;;;;;;;14.30;7.05;;;;;;;;;;6142908;23;20435;-73
2022/10/14 08:49:16;;;;;;;10.15;7.13;;;;;;;;;;6144065;23;19998;-73
2022/10/14 08:51:44;;;;;;;9.23;7.32;;;;;;;;;;6142831;23;20013;-74
2022/10/14 08:54:14;;;;;;;11.43;6.90;;;;;;;;;;6144145;23;20129;-74
2022/10/14 08:56:41;;;;;;;13.98;7.32;;;;;;;;;;6129650;23;20014;-74
2022/10/14 08:59:12;;;;;;;11.63;7.93;;;;;;;;;;6113949;23;20681;-73
2022/10/14 09:01:48;;;;;;;11.53;8.10;;;;;;;;;;6115169;23;19998;-75
2022/10/14 09:04:15;;;;;;;9.00;7.53;;;;;;;;;;6112933;23;20432;-73
2022/10/14 09:06:44;;;;;;;12.18;8.40;;;;;;;;;;6114635;23;20021;-74
2022/10/14 09:09:25;;;;;;;14.18;8.27;;;;;;;;;;6114394;23;20128;-74
2022/10/14 09:12:02;;;;;;;11.65;7.80;;;;;;;;;;6082798;23;20096;-76
2022/10/14 09:14:34;;;;;;;11.55;8.32;;;;;;;;;;6112167;23;20626;-76
2022/10/14 09:17:04;;;;;;;12.93;8.57;;;;;;;;;;6113629;23;20036;-75
2022/10/14 09:19:32;;;;;;;11.23;7.73;;;;;;;;;;6087152;23;20006;-74
2022/10/14 09:22:00;;;;;;;14.02;8.48;;;;;;;;;;6112429;23;20673;-75
2022/10/14 09:24:26;;;;;;;14.65;8.30;;;;;;;;;;6113755;23;20477;-75
2022/10/14 09:26:56;;;;;;;14.25;8.68;;;;;;;;;;6088111;23;20101;-75
2022/10/14 09:29:26;;;;;;;14.70;8.18;;;;;;;;;;6112997;23;20447;-76
2022/10/14 09:31:53;;;;;;;14.50;8.45;;;;;;;;;;6086142;23;20398;-76
2022/10/14 09:34:23;;;;;;;10.75;7.95;;;;;;;;;;6087835;23;20024;-77
2022/10/14 09:37:11;;;;;;;;;;;;;;;;;;;;;
2022/10/14 09:39:39;;;;;;;11.30;7.95;;;;;;;;;;6111520;23;20014;-76
2022/10/14 09:42:33;;;;;;;14.73;7.88;;;;;;;;;;6113666;23;20005;-77
2022/10/14 09:45:24;;;;;;;14.30;8.55;;;;;;;;;;6113643;23;20006;-77
2022/10/14 09:47:52;;;;;;;12.25;7.90;;;;;;;;;;6104603;23;20003;-79
2022/10/14 09:50:23;;;;;;;14.70;9.23;;;;;;;;;;6111847;23;20081;-77
2022/10/14 09:52:53;;;;;;;18.35;8.30;;;;;;;;;;6113710;23;20006;-79
2022/10/14 09:55:22;;;;;;;11.93;8.68;;;;;;;;;;6087884;23;20005;-77
2022/10/14 09:57:55;;;;;;;13.40;8.05;;;;;;;;;;6112142;23;20026;-77
2022/10/14 10:00:44;;;;;;;11.05;7.45;;;;;;;;;;6087676;23;20006;-77
2022/10/14 10:03:40;;;;;;;15.13;8.18;;;;;;;;;;6072631;23;20089;-77
2022/10/14 10:06:08;;;;;;;13.10;8.02;;;;;;;;;;6087756;23;20320;-78
2022/10/14 10:08:38;;;;;;;11.60;8.00;;;;;;;;;;6112624;23;19998;-77
2022/10/14 10:11:09;;;;;;;13.63;7.80;;;;;;;;;;6112975;23;20010;-77
2022/10/14 10:13:43;;;;;;;10.13;7.60;;;;;;;;;;6112069;23;19999;-77
2022/10/14 10:16:21;;;;;;;15.48;7.78;;;;;;;;;;6114114;23;20328;-77
2022/10/14 10:18:48;;;;;;;11.13;7.63;;;;;;;;;;6086917;23;20006;-77
2022/10/14 10:21:19;;;;;;;14.30;7.15;;;;;;;;;;6111542;23;20012;-76
2022/10/14 10:23:51;;;;;;;11.02;8.07;;;;;;;;;;6113471;23;20006;-77
2022/10/14 10:26:24;;;;;;;14.50;8.05;;;;;;;;;;6113451;23;20018;-77
2022/10/14 10:28:51;;;;;;;19.20;7.72;;;;;;;;;;6112848;23;20006;-78
2022/10/14 10:31:17;;;;;;;12.82;7.63;;;;;;;;;;6113495;23;20002;-77
2022/10/14 10:33:47;;;;;;;15.13;8.00;;;;;;;;;;6111276;23;20002;-78
2022/10/14 10:36:27;;;;;;;11.38;7.57;;;;;;;;;;6113580;23;20032;-76
2022/10/14 10:39:01;;;;;;;10.90;7.80;;;;;;;;;;6112454;23;20029;-75
2022/10/14 10:41:38;;;;;;;11.88;8.00;;;;;;;;;;6113256;23;20008;-75
2022/10/14 10:44:18;;;;;;;11.18;8.07;;;;;;;;;;6112911;23;20077;-75
2022/10/14 10:47:04;;;;;;;10.27;7.90;;;;;;;;;;6113240;23;20010;-75
2022/10/14 10:49:39;;;;;;;12.43;7.85;;;;;;;;;;6110559;23;20005;-75
2022/10/14 10:52:07;;;;;;;11.38;8.02;;;;;;;;;;6112692;23;20006;-75
2022/10/14 10:54:45;;;;;;;10.45;7.47;;;;;;;;;;6112408;23;20041;-76
2022/10/14 10:57:14;;;;;;;14.90;8.25;;;;;;;;;;6113527;23;20081;-74
2022/10/14 10:59:44;;;;;;;15.00;8.13;;;;;;;;;;6112949;23;20006;-74
2022/10/14 11:02:10;;;;;;;11.77;7.65;;;;;;;;;;6111948;23;20379;-76
2022/10/14 11:04:36;;;;;;;12.48;7.35;;;;;;;;;;6112910;23;20002;-75
2022/10/14 11:12:50;;;;;;;17.38;7.60;;;;;;;;;;6112626;23;20537;-75
2022/10/14 11:15:19;;;;;;;8.75;6.55;;;;;;;;;;6113337;23;20085;-77
2022/10/14 11:17:54;;;;;;;10.27;7.00;;;;;;;;;;6111536;23;20005;-76
2022/10/14 11:20:21;;;;;;;12.57;7.40;;;;;;;;;;6110687;23;20006;-75
2022/10/14 11:23:06;;;;;;;10.40;6.65;;;;;;;;;;6087173;23;20002;-74
2022/10/14 11:25:32;;;;;;;11.13;7.05;;;;;;;;;;6112816;23;20014;-76
2022/10/14 11:27:59;;;;;;;13.23;7.80;;;;;;;;;;6112771;23;20080;-75
2022/10/14 11:30:37;;;;;;;11.32;7.78;;;;;;;;;;6112516;23;20450;-74
2022/10/14 11:33:16;;;;;;;16.50;8.23;;;;;;;;;;6087490;23;20013;-75
2022/10/14 11:35:54;;;;;;;12.85;7.50;;;;;;;;;;6110640;23;20006;-75
2022/10/14 11:38:26;;;;;;;10.95;7.30;;;;;;;;;;6112812;23;20451;-74
2022/10/14 11:40:52;;;;;;;9.98;6.18;;;;;;;;;;6111807;23;20026;-74
2022/10/14 11:43:27;;;;;;;9.80;6.25;;;;;;;;;;6112668;23;20002;-75
2022/10/14 11:45:56;;;;;;;12.60;6.10;;;;;;;;;;6111466;23;20037;-74
2022/10/14 11:48:32;;;;;;;9.77;6.18;;;;;;;;;;6112852;23;20013;-76
2022/10/14 11:51:05;;;;;;;8.70;6.40;;;;;;;;;;6111982;23;20005;-76
2022/10/14 11:53:41;;;;;;;8.73;5.18;;;;;;;;;;6113289;23;20005;-77
2022/10/14 11:56:19;;;;;;;11.95;5.80;;;;;;;;;;6113166;23;20017;-75
2022/10/14 11:58:46;;;;;;;9.60;5.93;;;;;;;;;;6113048;23;20002;-74
2022/10/14 12:01:13;;;;;;;9.32;5.55;;;;;;;;;;6111032;23;20611;-75
2022/10/14 12:03:42;;;;;;;10.25;5.90;;;;;;;;;;6112327;23;20049;-75
2022/10/14 12:06:24;;;;;;;11.13;5.82;;;;;;;;;;6112874;23;20049;-74
2022/10/14 12:09:19;;;;;;;8.00;5.20;;;;;;;;;;6111888;23;20077;-75
2022/10/14 12:11:48;;;;;;;12.40;6.30;;;;;;;;;;6087146;23;20076;-74
2022/10/14 12:14:17;;;;;;;12.73;6.05;;;;;;;;;;6110608;23;20439;-75
2022/10/14 12:16:44;;;;;;;7.72;5.32;;;;;;;;;;6111915;23;20076;-74
2022/10/14 12:19:12;;;;;;;10.82;5.90;;;;;;;;;;6111610;23;20056;-76
2022/10/14 12:21:53;;;;;;;9.25;5.72;;;;;;;;;;6112605;23;20006;-74
2022/10/14 12:24:21;;;;;;;8.45;5.13;;;;;;;;;;6111800;23;20068;-76
2022/10/14 12:26:50;;;;;;;7.30;5.57;;;;;;;;;;6086432;23;20462;-76
2022/10/14 12:29:28;;;;;;;10.57;5.45;;;;;;;;;;6112071;23;20021;-74
2022/10/14 12:32:04;;;;;;;13.65;5.88;;;;;;;;;;6115181;23;20017;-73
2022/10/14 12:34:40;;;;;;;11.18;5.95;;;;;;;;;;6112298;23;20669;-72
2022/10/14 12:37:25;;;;;;;8.70;5.40;;;;;;;;;;6112485;23;20453;-75
2022/10/14 12:39:52;;;;;;;14.68;5.55;;;;;;;;;;6111599;23;20008;-75
2022/10/14 12:42:19;;;;;;;10.25;5.18;;;;;;;;;;6111556;23;20435;-75
2022/10/14 12:44:54;;;;;;;7.95;4.93;;;;;;;;;;6111661;23;19998;-76
2022/10/14 12:47:23;;;;;;;11.07;5.70;;;;;;;;;;6110449;23;20081;-75
2022/10/14 12:49:51;;;;;;;10.23;5.32;;;;;;;;;;6110329;23;20021;-77
2022/10/14 12:52:20;;;;;;;12.00;5.45;;;;;;;;;;6109666;23;20442;-77
2022/10/14 12:54:47;;;;;;;13.20;5.47;;;;;;;;;;6107937;23;20056;-77
2022/10/14 12:57:19;;;;;;;8.93;5.63;;;;;;;;;;6109220;23;20057;-76
2022/10/14 12:59:49;;;;;;;10.95;6.22;;;;;;;;;;6109394;23;20138;-76
2022/10/14 13:02:24;;;;;;;16.13;8.35;;;;;;;;;;6109263;23;20448;-77
2022/10/14 13:04:53;;;;;;;11.13;6.22;;;;;;;;;;6081430;23;20010;-76
2022/10/14 13:07:25;;;;;;;10.80;7.72;;;;;;;;;;6109173;23;20105;-76
2022/10/14 13:09:58;;;;;;;15.57;8.50;;;;;;;;;;6108761;23;20061;-76
2022/10/14 13:12:25;;;;;;;10.05;7.80;;;;;;;;;;6108812;23;20791;-76
2022/10/14 13:15:11;;;;;;;10.70;7.35;;;;;;;;;;6109014;23;20422;-75
2022/10/14 13:17:44;;;;;;;15.10;8.57;;;;;;;;;;6046962;23;20081;-75
2022/10/14 13:20:29;;;;;;;13.55;9.57;;;;;;;;;;6109219;23;20570;-76
2022/10/14 13:23:15;;;;;;;15.05;8.90;;;;;;;;;;6109299;23;20022;-77
2022/10/14 13:25:42;;;;;;;16.58;8.50;;;;;;;;;;6106974;23;20498;-77
2022/10/14 13:28:14;;;;;;;12.02;7.57;;;;;;;;;;6083418;23;20122;-76
2022/10/14 13:30:58;;;;;;;12.57;6.25;;;;;;;;;;6108526;23;20088;-76
2022/10/14 13:33:29;;;;;;;9.60;6.38;;;;;;;;;;6109672;23;20077;-75
2022/10/14 13:35:55;;;;;;;8.00;6.03;;;;;;;;;;6085318;23;20438;-75
2022/10/14 13:38:23;;;;;;;10.50;5.45;;;;;;;;;;6085315;23;20014;-76
2022/10/14 13:40:53;;;;;;;8.32;5.50;;;;;;;;;;6108437;23;20081;-76
2022/10/14 13:43:25;;;;;;;18.33;6.00;;;;;;;;;;6108613;23;20010;-76
2022/10/14 13:46:15;;;;;;;12.02;6.28;;;;;;;;;;6085912;23;20045;-76
2022/10/14 13:48:46;;;;;;;10.75;5.45;;;;;;;;;;6094225;23;20439;-76
2022/10/14 13:51:24;;;;;;;12.25;5.30;;;;;;;;;;6109577;23;20073;-77
2022/10/14 13:53:55;;;;;;;11.55;5.10;;;;;;;;;;6086054;23;20056;-77
2022/10/14 13:56:37;;;;;;;15.00;5.60;;;;;;;;;;6090139;23;20104;-77
2022/10/14 13:59:21;;;;;;;13.82;5.72;;;;;;;;;;6109339;23;20323;-76
2022/10/14 14:01:48;;;;;;;7.75;5.53;;;;;;;;;;6108048;23;20009;-76
2022/10/14 14:04:21;;;;;;;14.55;6.60;;;;;;;;;;6110305;23;20002;-76
2022/10/14 14:06:47;;;;;;;9.35;6.30;;;;;;;;;;6109937;23;20036;-77
2022/10/14 14:09:19;;;;;;;14.38;6.32;;;;;;;;;;6108852;23;20439;-77
2022/10/14 14:11:46;;;;;;;10.43;5.68;;;;;;;;;;6111015;23;20012;-76
2022/10/14 14:14:22;;;;;;;13.25;6.32;;;;;;;;;;6110773;23;19994;-77
2022/10/14 14:16:48;;;;;;;10.20;6.13;;;;;;;;;;6111064;23;20012;-76
2022/10/14 14:19:41;;;;;;;8.07;6.05;;;;;;;;;;6108460;23;20006;-76
2022/10/14 14:22:16;;;;;;;11.30;5.88;;;;;;;;;;6106932;23;20465;-76
2022/10/14 14:24:43;;;;;;;9.13;5.75;;;;;;;;;;6108966;23;20002;-76
2022/10/14 14:27:12;;;;;;;15.05;7.60;;;;;;;;;;6110338;23;20254;-74
2022/10/14 14:29:41;;;;;;;13.90;6.03;;;;;;;;;;6110724;23;19998;-74
2022/10/14 14:32:12;;;;;;;11.63;5.65;;;;;;;;;;6112706;23;20028;-73
2022/10/14 14:34:39;;;;;;;13.27;6.57;;;;;;;;;;6111017;23;20002;-73
2022/10/14 14:37:05;;;;;;;11.32;6.32;;;;;;;;;;6113552;23;19998;-74
2022/10/14 14:39:31;;;;;;;12.00;6.05;;;;;;;;;;6113402;23;20008;-73
2022/10/14 14:41:59;;;;;;;10.60;6.40;;;;;;;;;;6113228;23;20480;-74
2022/10/14 14:44:29;;;;;;;7.25;5.30;;;;;;;;;;6113527;23;20038;-73
2022/10/14 14:47:02;;;;;;;7.55;5.82;;;;;;;;;;6111227;23;20301;-74
2022/10/14 14:49:30;;;;;;;8.52;5.60;;;;;;;;;;6112395;23;20006;-73
2022/10/14 14:51:56;;;;;;;10.25;5.30;;;;;;;;;;6113003;23;20009;-72
2022/10/14 14:54:23;;;;;;;7.78;4.30;;;;;;;;;;6111978;23;20006;-76